Private Wetterstation Sandau
Wetterdaten: Woche 23.07.12 - 29.07.12 (KW30)
Datum Zeit Temp. A. Feuchte A. Luftdruck Regen Wind Richtung Taupunkt Windchill
23.07.2012 00:00 12,7 C 80 % 1029,7 hPa 0,0 l/m 0,1 km/h (0 Bft) SW 9,2 C 12,7 C
23.07.2012 01:00 12,3 C 82 % 1029,7 hPa 0,0 l/m 0,6 km/h (0 Bft) S-SO 9,3 C 12,3 C
23.07.2012 02:00 12,2 C 82 % 1029,9 hPa 0,0 l/m 0,6 km/h (0 Bft) S-SO 9,2 C 12,2 C
23.07.2012 03:00 12,7 C 81 % 1029,7 hPa 0,0 l/m 1,3 km/h (1 Bft) S-SO 9,5 C 12,7 C
23.07.2012 04:00 12,2 C 81 % 1029,7 hPa 0,0 l/m 1,0 km/h (0 Bft) S-SO 9,2 C 12,2 C
23.07.2012 05:00 11,5 C 83 % 1029,6 hPa 0,0 l/m 3,2 km/h (1 Bft) S-SO 8,7 C 11,5 C
23.07.2012 06:00 12,5 C 82 % 1029,8 hPa 0,0 l/m 4,7 km/h (1 Bft) S 9,4 C 12,5 C
23.07.2012 07:00 14,8 C 77 % 1030,0 hPa 0,0 l/m 2,2 km/h (1 Bft) S-SO 10,7 C 14,8 C
23.07.2012 08:00 16,8 C 72 % 1030,4 hPa 0,0 l/m 2,4 km/h (1 Bft) S-SW 11,8 C 16,8 C
23.07.2012 09:00 19,7 C 63 % 1030,4 hPa 0,0 l/m 5,1 km/h (1 Bft) S 12,4 C 19,7 C
23.07.2012 10:00 22,1 C 49 % 1030,0 hPa 0,0 l/m 10,4 km/h (2 Bft) S-SW 10,9 C 22,1 C
23.07.2012 11:00 23,2 C 41 % 1029,8 hPa 0,0 l/m 10,0 km/h (2 Bft) S-SW 9,3 C 23,2 C
23.07.2012 12:00 24,4 C 38 % 1029,4 hPa 0,0 l/m 11,9 km/h (2 Bft) S-SW 9,2 C 24,4 C
23.07.2012 13:00 25,6 C 36 % 1028,8 hPa 0,0 l/m 7,8 km/h (2 Bft) S-SO 9,2 C 25,6 C
23.07.2012 14:00 26,7 C 35 % 1028,2 hPa 0,0 l/m 7,3 km/h (2 Bft) S-SO 9,8 C 26,7 C
23.07.2012 15:00 27,5 C 33 % 1027,8 hPa 0,0 l/m 8,4 km/h (2 Bft) S 9,7 C 27,5 C
23.07.2012 16:00 27,8 C 31 % 1027,3 hPa 0,0 l/m 7,3 km/h (2 Bft) S-SO 9,2 C 27,8 C
23.07.2012 17:00 27,8 C 32 % 1026,8 hPa 0,0 l/m 7,4 km/h (2 Bft) S-SW 9,5 C 27,8 C
23.07.2012 18:00 27,9 C 32 % 1026,3 hPa 0,0 l/m 5,2 km/h (1 Bft) S-SW 9,5 C 27,9 C
23.07.2012 19:00 26,9 C 34 % 1026,0 hPa 0,0 l/m 4,3 km/h (1 Bft) S-SO 9,7 C 26,9 C
23.07.2012 20:00 25,0 C 37 % 1025,8 hPa 0,0 l/m 1,1 km/h (0 Bft) S-SO 9,3 C 25,0 C
23.07.2012 21:00 21,6 C 45 % 1025,9 hPa 0,0 l/m 0,2 km/h (0 Bft) SO 9,2 C 21,6 C
23.07.2012 22:00 19,3 C 53 % 1025,9 hPa 0,0 l/m 1,1 km/h (1 Bft) O-SO 9,4 C 19,3 C
23.07.2012 23:00 17,8 C 58 % 1025,9 hPa 0,0 l/m 0,8 km/h (0 Bft) SO 9,5 C 17,8 C
24.07.2012 00:00 16,6 C 64 % 1025,9 hPa 0,0 l/m 0,2 km/h (0 Bft) O-SO 9,7 C 16,6 C
24.07.2012 01:00 15,8 C 68 % 1025,7 hPa 0,0 l/m 1,2 km/h (1 Bft) O-SO 10,0 C 15,8 C
24.07.2012 02:00 15,1 C 72 % 1025,5 hPa 0,0 l/m 1,6 km/h (1 Bft) O-SO 10,0 C 15,1 C
24.07.2012 03:00 14,7 C 73 % 1025,4 hPa 0,0 l/m 2,9 km/h (1 Bft) O-SO 9,9 C 14,7 C
25.07.2012 21:00 26,1 C 61 % 1014,1 hPa 0,0 l/m 1,3 km/h (1 Bft) N 17,9 C 26,1 C
25.07.2012 22:00 25,2 C 61 % 1014,1 hPa 0,0 l/m 3,1 km/h (1 Bft) N 17,0 C 25,2 C
25.07.2012 23:00 24,2 C 62 % 1014,3 hPa 0,0 l/m 1,3 km/h (1 Bft) W-NW 16,4 C 24,2 C
26.07.2012 00:00 22,5 C 67 % 1014,4 hPa 0,0 l/m 1,0 km/h (0 Bft) NW 16,1 C 22,5 C
26.07.2012 01:00 21,6 C 68 % 1014,6 hPa 0,0 l/m 0,2 km/h (0 Bft) N 15,5 C 21,6 C
26.07.2012 02:00 20,7 C 72 % 1014,7 hPa 0,0 l/m 0,5 km/h (0 Bft) NW 15,5 C 20,7 C
26.07.2012 03:00 20,0 C 75 % 1014,8 hPa 0,0 l/m 1,1 km/h (1 Bft) NW 15,4 C 20,0 C
26.07.2012 04:00 19,4 C 77 % 1014,9 hPa 0,0 l/m 1,6 km/h (1 Bft) NW 15,3 C 19,4 C
26.07.2012 05:00 18,9 C 80 % 1015,2 hPa 0,0 l/m 1,5 km/h (1 Bft) W-NW 15,3 C 18,9 C
26.07.2012 06:00 19,4 C 79 % 1015,7 hPa 0,0 l/m 0,5 km/h (0 Bft) W-NW 15,7 C 19,4 C
26.07.2012 07:00 22,1 C 73 % 1016,0 hPa 0,0 l/m 2,3 km/h (1 Bft) N 17,0 C 22,1 C
26.07.2012 08:00 23,2 C 67 % 1016,2 hPa 0,0 l/m 6,9 km/h (2 Bft) N-NO 16,7 C 23,2 C
26.07.2012 09:00 24,5 C 61 % 1016,4 hPa 0,0 l/m 5,8 km/h (2 Bft) N-NO 16,6 C 24,5 C
26.07.2012 10:00 26,5 C 55 % 1016,5 hPa 0,5 l/m 5,9 km/h (2 Bft) N-NO 16,6 C 26,5 C
26.07.2012 11:00 28,2 C 49 % 1016,7 hPa 0,0 l/m 6,1 km/h (2 Bft) N-NO 16,6 C 28,2 C
26.07.2012 12:00 29,5 C 45 % 1016,8 hPa 0,0 l/m 6,0 km/h (2 Bft) N 16,2 C 29,5 C
26.07.2012 13:00 30,4 C 42 % 1016,8 hPa 0,0 l/m 5,7 km/h (1 Bft) N 16,0 C 30,4 C
26.07.2012 14:00 31,7 C 38 % 1016,6 hPa 0,0 l/m 3,5 km/h (1 Bft) N-NO 15,6 C 31,7 C
26.07.2012 15:00 32,1 C 37 % 1016,4 hPa 0,0 l/m 4,0 km/h (1 Bft) N-NW 15,6 C 32,1 C
26.07.2012 16:00 31,3 C 37 % 1016,2 hPa 0,0 l/m 6,1 km/h (2 Bft) N-NO 14,8 C 31,3 C
26.07.2012 18:00 29,5 C 40 % 1016,4 hPa 0,0 l/m 5,8 km/h (1 Bft) N-NO 14,5 C 29,5 C
26.07.2012 19:00 28,7 C 43 % 1016,4 hPa 0,0 l/m 6,8 km/h (2 Bft) N 15,0 C 28,7 C
26.07.2012 20:00 27,0 C 47 % 1016,7 hPa 0,0 l/m 5,1 km/h (1 Bft) N-NO 14,8 C 27,0 C
26.07.2012 21:00 25,1 C 51 % 1017,2 hPa 0,0 l/m 2,6 km/h (1 Bft) NO 14,4 C 25,1 C
26.07.2012 22:00 24,0 C 53 % 1017,6 hPa 0,0 l/m 2,9 km/h (1 Bft) O-NO 13,8 C 24,0 C
26.07.2012 23:00 22,7 C 57 % 1017,7 hPa 0,0 l/m 4,7 km/h (1 Bft) O-NO 13,8 C 22,7 C
27.07.2012 00:00 21,3 C 61 % 1017,6 hPa 0,0 l/m 2,0 km/h (1 Bft) O-NO 13,5 C 21,3 C
27.07.2012 01:00 20,5 C 63 % 1017,5 hPa 0,0 l/m 0,9 km/h (0 Bft) O-NO 13,2 C 20,5 C
27.07.2012 02:00 19,5 C 67 % 1017,3 hPa 0,0 l/m 1,2 km/h (1 Bft) O-NO 13,2 C 19,5 C
27.07.2012 03:00 18,5 C 69 % 1017,1 hPa 0,0 l/m 0,0 km/h (0 Bft) N 12,7 C 18,5 C
27.07.2012 04:00 17,8 C 72 % 1017,1 hPa 0,0 l/m 0,0 km/h (0 Bft) N 12,6 C 17,8 C
27.07.2012 05:00 17,1 C 75 % 1017,0 hPa 0,0 l/m 0,0 km/h (0 Bft) N 12,5 C 17,1 C
27.07.2012 06:00 19,1 C 72 % 1017,2 hPa 0,0 l/m 0,0 km/h (0 Bft) O-NO 13,9 C 19,1 C
27.07.2012 07:00 21,4 C 63 % 1017,2 hPa 0,0 l/m 2,3 km/h (1 Bft) O-NO 14,1 C 21,4 C
27.07.2012 08:00 22,3 C 61 % 1017,3 hPa 0,0 l/m 3,0 km/h (1 Bft) SO 14,4 C 22,3 C
27.07.2012 09:00 24,2 C 55 % 1016,9 hPa 0,0 l/m 6,1 km/h (2 Bft) SO 14,6 C 24,2 C
27.07.2012 10:00 26,2 C 47 % 1016,5 hPa 0,0 l/m 6,1 km/h (2 Bft) O-SO 14,0 C 26,2 C
27.07.2012 11:00 27,9 C 43 % 1015,8 hPa 0,0 l/m 6,1 km/h (2 Bft) O 14,2 C 27,9 C
27.07.2012 12:00 29,6 C 40 % 1015,1 hPa 0,0 l/m 8,3 km/h (2 Bft) SO 14,7 C 29,6 C
27.07.2012 13:00 31,2 C 37 % 1014,4 hPa 0,0 l/m 8,1 km/h (2 Bft) SO 14,9 C 31,2 C
27.07.2012 14:00 31,6 C 38 % 1014,1 hPa 0,0 l/m 6,1 km/h (2 Bft) N 15,5 C 31,6 C
28.07.2012 20:00 21,0 C 72 % 1009,4 hPa 7,8 l/m 3,8 km/h (1 Bft) N-NO 15,8 C 21,0 C
28.07.2012 21:00 20,4 C 75 % 1009,9 hPa 0,0 l/m 3,4 km/h (1 Bft) N-NO 15,8 C 20,4 C
28.07.2012 22:00 19,8 C 76 % 1010,5 hPa 0,0 l/m 3,2 km/h (1 Bft) N-NW 15,5 C 19,8 C
28.07.2012 23:00 19,5 C 77 % 1010,6 hPa 0,0 l/m 1,9 km/h (1 Bft) N 15,3 C 19,5 C
29.07.2012 00:00 19,3 C 77 % 1010,3 hPa 0,0 l/m 1,2 km/h (1 Bft) N-NO 15,2 C 19,3 C
29.07.2012 01:00 18,9 C 80 % 1010,2 hPa 0,0 l/m 2,3 km/h (1 Bft) N-NO 15,3 C 18,9 C
29.07.2012 02:00 18,4 C 81 % 1009,8 hPa 0,0 l/m 4,3 km/h (1 Bft) N 15,1 C 18,4 C
29.07.2012 03:00 18,4 C 82 % 1009,6 hPa 0,0 l/m 2,8 km/h (1 Bft) O-NO 15,2 C 18,4 C
29.07.2012 04:00 18,4 C 82 % 1009,7 hPa 0,0 l/m 3,8 km/h (1 Bft) O-NO 15,3 C 18,4 C
29.07.2012 05:00 18,0 C 84 % 1009,6 hPa 1,0 l/m 2,6 km/h (1 Bft) NO 15,2 C 18,0 C
29.07.2012 06:00 16,4 C 86 % 1009,8 hPa 0,5 l/m 6,0 km/h (2 Bft) O-NO 14,0 C 16,4 C
29.07.2012 07:00 16,1 C 87 % 1009,9 hPa 0,0 l/m 4,4 km/h (1 Bft) O-NO 13,8 C 16,1 C
29.07.2012 08:00 16,4 C 87 % 1009,5 hPa 0,0 l/m 2,7 km/h (1 Bft) O-NO 14,2 C 16,4 C
29.07.2012 09:00 17,1 C 86 % 1009,3 hPa 0,0 l/m 2,3 km/h (1 Bft) O-NO 14,8 C 17,1 C
29.07.2012 10:00 18,6 C 82 % 1009,5 hPa 0,0 l/m 4,0 km/h (1 Bft) O-NO 15,5 C 18,6 C
29.07.2012 11:00 20,1 C 79 % 1009,6 hPa 0,0 l/m 2,3 km/h (1 Bft) SO 16,2 C 20,1 C
29.07.2012 12:00 20,4 C 79 % 1009,6 hPa 0,0 l/m 1,6 km/h (1 Bft) S-SW 16,5 C 20,4 C
29.07.2012 13:00 21,0 C 79 % 1009,6 hPa 1,0 l/m 0,9 km/h (0 Bft) S-SW 17,2 C 21,0 C
29.07.2012 14:00 19,7 C 84 % 1010,0 hPa 2,1 l/m 10,0 km/h (2 Bft) W-NW 16,9 C 19,7 C
29.07.2012 15:00 19,4 C 84 % 1010,7 hPa 0,0 l/m 7,9 km/h (2 Bft) W 16,7 C 19,4 C
29.07.2012 16:00 21,1 C 78 % 1011,0 hPa 0,0 l/m 5,7 km/h (1 Bft) W-NW 17,1 C 21,1 C
Min-Datum _ 23.07.12 23.07.12 29.07.12 - 23.07.12 - 23.07.12 23.07.12
_ Min-Zeit 05:26 16:16 08:56 - 00:01 - 11:41 05:26
Minimum _ 11,2 C 30 % 1009,2 hPa - 0,0 km/h (0 Bft) - 8,2 C 11,2 C
Max-Datum _ 26.07.12 29.07.12 23.07.12 28.07.12 23.07.12 - 25.07.12 26.07.12
_ Max-Zeit 15:36 06:16 08:51 20:46 12:26 - 21:46 15:36
Maximum _ 32,6 C 88 % 1030,6 hPa 7,8 l/m 22,7 km/h
S-SW (4 Bft)
- 18,2 C 32,6 C
Durchschnitt _ 21,6 C 63 % 1018,4 hPa #13,0 l/m 3,7 km/h (1 Bft) O-NO 13,5 C 21,6 C
(c) by David Heller